sensor_id;sensor_type;location;lat;lon;timestamp;temperature;humidity
678;DHT22;321;48.814;9.132;2022-10-13T00:00:27;12.30;99.90
678;DHT22;321;48.814;9.132;2022-10-13T00:02:53;12.30;99.90
678;DHT22;321;48.814;9.132;2022-10-13T00:05:19;12.10;99.90
678;DHT22;321;48.814;9.132;2022-10-13T00:07:44;12.20;99.90
678;DHT22;321;48.814;9.132;2022-10-13T00:10:10;12.30;99.90
678;DHT22;321;48.814;9.132;2022-10-13T00:12:37;12.20;99.90
678;DHT22;321;48.814;9.132;2022-10-13T00:15:06;12.30;99.90
678;DHT22;321;48.814;9.132;2022-10-13T00:17:33;12.30;99.90
678;DHT22;321;48.814;9.132;2022-10-13T00:20:01;12.20;99.90
678;DHT22;321;48.814;9.132;2022-10-13T00:22:27;12.20;99.90
678;DHT22;321;48.814;9.132;2022-10-13T00:24:52;12.30;99.90
678;DHT22;321;48.814;9.132;2022-10-13T00:27:19;12.30;99.90
678;DHT22;321;48.814;9.132;2022-10-13T00:29:44;12.30;99.90
678;DHT22;321;48.814;9.132;2022-10-13T00:32:10;12.40;99.90
678;DHT22;321;48.814;9.132;2022-10-13T00:34:36;12.40;99.90
678;DHT22;321;48.814;9.132;2022-10-13T00:37:02;12.30;99.90
678;DHT22;321;48.814;9.132;2022-10-13T00:39:28;12.30;99.90
678;DHT22;321;48.814;9.132;2022-10-13T00:41:53;12.30;99.90
678;DHT22;321;48.814;9.132;2022-10-13T00:44:59;12.40;99.90
678;DHT22;321;48.814;9.132;2022-10-13T00:47:32;12.40;99.90
678;DHT22;321;48.814;9.132;2022-10-13T00:49:59;12.40;99.90
678;DHT22;321;48.814;9.132;2022-10-13T00:52:25;12.40;99.90
678;DHT22;321;48.814;9.132;2022-10-13T00:54:53;12.40;99.90
678;DHT22;321;48.814;9.132;2022-10-13T00:57:20;12.30;99.90
678;DHT22;321;48.814;9.132;2022-10-13T00:59:46;12.30;99.90
678;DHT22;321;48.814;9.132;2022-10-13T01:02:12;12.30;99.90
678;DHT22;321;48.814;9.132;2022-10-13T01:04:44;12.30;99.90
678;DHT22;321;48.814;9.132;2022-10-13T01:07:13;12.20;99.90
678;DHT22;321;48.814;9.132;2022-10-13T01:09:40;12.30;99.90
678;DHT22;321;48.814;9.132;2022-10-13T01:12:42;12.20;99.90
678;DHT22;321;48.814;9.132;2022-10-13T01:15:33;12.10;99.90
678;DHT22;321;48.814;9.132;2022-10-13T01:29:09;12.20;99.90
678;DHT22;321;48.814;9.132;2022-10-13T01:31:42;12.20;99.90
678;DHT22;321;48.814;9.132;2022-10-13T01:34:24;12.20;99.90
678;DHT22;321;48.814;9.132;2022-10-13T01:45:17;12.20;99.90
678;DHT22;321;48.814;9.132;2022-10-13T01:47:45;12.10;99.90
678;DHT22;321;48.814;9.132;2022-10-13T01:50:13;12.00;99.90
678;DHT22;321;48.814;9.132;2022-10-13T01:52:41;12.00;99.90
678;DHT22;321;48.814;9.132;2022-10-13T01:55:09;12.00;99.90
678;DHT22;321;48.814;9.132;2022-10-13T01:57:39;12.10;99.90
678;DHT22;321;48.814;9.132;2022-10-13T02:00:11;12.10;99.90
678;DHT22;321;48.814;9.132;2022-10-13T02:07:59;12.00;99.90
678;DHT22;321;48.814;9.132;2022-10-13T02:13:13;11.90;99.90
678;DHT22;321;48.814;9.132;2022-10-13T02:15:46;11.80;99.90
678;DHT22;321;48.814;9.132;2022-10-13T02:18:14;11.70;99.90
678;DHT22;321;48.814;9.132;2022-10-13T02:20:41;11.70;99.90
678;DHT22;321;48.814;9.132;2022-10-13T02:23:11;11.70;99.90
678;DHT22;321;48.814;9.132;2022-10-13T02:25:38;11.80;99.90
678;DHT22;321;48.814;9.132;2022-10-13T02:28:04;11.90;99.90
678;DHT22;321;48.814;9.132;2022-10-13T02:30:31;11.90;99.90
678;DHT22;321;48.814;9.132;2022-10-13T02:32:58;12.00;99.90
678;DHT22;321;48.814;9.132;2022-10-13T02:35:23;12.10;99.90
678;DHT22;321;48.814;9.132;2022-10-13T02:37:49;12.20;99.90
678;DHT22;321;48.814;9.132;2022-10-13T02:40:14;12.30;99.90
678;DHT22;321;48.814;9.132;2022-10-13T02:42:40;12.40;99.90
678;DHT22;321;48.814;9.132;2022-10-13T02:45:06;12.40;99.90
678;DHT22;321;48.814;9.132;2022-10-13T02:47:32;12.40;99.90
678;DHT22;321;48.814;9.132;2022-10-13T02:49:57;12.50;99.90
678;DHT22;321;48.814;9.132;2022-10-13T02:52:23;12.50;99.90
678;DHT22;321;48.814;9.132;2022-10-13T02:54:49;12.60;99.90
678;DHT22;321;48.814;9.132;2022-10-13T02:57:14;12.60;99.90
678;DHT22;321;48.814;9.132;2022-10-13T02:59:40;12.60;99.90
678;DHT22;321;48.814;9.132;2022-10-13T03:02:05;12.60;99.90
678;DHT22;321;48.814;9.132;2022-10-13T03:04:31;12.60;99.90
678;DHT22;321;48.814;9.132;2022-10-13T03:06:56;12.40;99.90
678;DHT22;321;48.814;9.132;2022-10-13T03:09:22;12.30;99.90
678;DHT22;321;48.814;9.132;2022-10-13T03:11:47;12.50;99.90
678;DHT22;321;48.814;9.132;2022-10-13T03:14:13;12.50;99.90
678;DHT22;321;48.814;9.132;2022-10-13T03:16:38;12.60;99.90
678;DHT22;321;48.814;9.132;2022-10-13T03:19:04;12.70;99.90
678;DHT22;321;48.814;9.132;2022-10-13T03:21:30;12.70;99.90
678;DHT22;321;48.814;9.132;2022-10-13T03:23:55;12.80;99.90
678;DHT22;321;48.814;9.132;2022-10-13T03:26:21;12.90;99.90
678;DHT22;321;48.814;9.132;2022-10-13T03:28:50;12.90;99.90
678;DHT22;321;48.814;9.132;2022-10-13T03:31:17;13.10;99.90
678;DHT22;321;48.814;9.132;2022-10-13T03:33:43;13.10;99.90
678;DHT22;321;48.814;9.132;2022-10-13T03:36:10;13.20;99.90
678;DHT22;321;48.814;9.132;2022-10-13T03:38:37;13.30;99.90
678;DHT22;321;48.814;9.132;2022-10-13T03:41:08;13.30;99.90
678;DHT22;321;48.814;9.132;2022-10-13T03:43:34;13.30;99.90
678;DHT22;321;48.814;9.132;2022-10-13T03:46:01;13.40;99.90
678;DHT22;321;48.814;9.132;2022-10-13T03:48:28;13.50;99.90
678;DHT22;321;48.814;9.132;2022-10-13T03:50:54;13.50;99.90
678;DHT22;321;48.814;9.132;2022-10-13T03:53:20;13.50;99.90
678;DHT22;321;48.814;9.132;2022-10-13T03:55:54;13.60;99.90
678;DHT22;321;48.814;9.132;2022-10-13T03:58:21;13.50;99.90
678;DHT22;321;48.814;9.132;2022-10-13T04:00:46;13.50;99.90
678;DHT22;321;48.814;9.132;2022-10-13T04:03:12;13.60;99.90
678;DHT22;321;48.814;9.132;2022-10-13T04:05:38;13.70;99.90
678;DHT22;321;48.814;9.132;2022-10-13T04:08:04;13.70;99.90
678;DHT22;321;48.814;9.132;2022-10-13T04:10:30;13.80;99.90
678;DHT22;321;48.814;9.132;2022-10-13T04:12:55;13.80;99.90
678;DHT22;321;48.814;9.132;2022-10-13T04:15:21;13.90;99.90
678;DHT22;321;48.814;9.132;2022-10-13T04:17:46;13.90;99.90
678;DHT22;321;48.814;9.132;2022-10-13T04:20:12;14.00;99.90
678;DHT22;321;48.814;9.132;2022-10-13T04:22:38;13.90;99.90
678;DHT22;321;48.814;9.132;2022-10-13T04:25:04;13.90;99.90
678;DHT22;321;48.814;9.132;2022-10-13T04:27:30;14.00;99.90
678;DHT22;321;48.814;9.132;2022-10-13T04:29:57;14.00;99.90
678;DHT22;321;48.814;9.132;2022-10-13T04:32:22;14.00;99.90
678;DHT22;321;48.814;9.132;2022-10-13T04:34:48;13.70;99.90
678;DHT22;321;48.814;9.132;2022-10-13T04:37:14;13.60;99.90
678;DHT22;321;48.814;9.132;2022-10-13T04:39:39;13.60;99.90
678;DHT22;321;48.814;9.132;2022-10-13T04:42:05;13.50;99.90
678;DHT22;321;48.814;9.132;2022-10-13T04:44:30;13.50;99.90
678;DHT22;321;48.814;9.132;2022-10-13T04:46:56;13.40;99.90
678;DHT22;321;48.814;9.132;2022-10-13T04:49:23;13.40;99.90
678;DHT22;321;48.814;9.132;2022-10-13T04:51:48;13.30;99.90
678;DHT22;321;48.814;9.132;2022-10-13T04:54:14;13.30;99.90
678;DHT22;321;48.814;9.132;2022-10-13T04:56:40;13.40;99.90
678;DHT22;321;48.814;9.132;2022-10-13T04:59:05;13.40;99.90
678;DHT22;321;48.814;9.132;2022-10-13T05:01:32;13.40;99.90
678;DHT22;321;48.814;9.132;2022-10-13T05:04:01;13.40;99.90
678;DHT22;321;48.814;9.132;2022-10-13T05:06:31;13.40;99.90
678;DHT22;321;48.814;9.132;2022-10-13T05:08:57;13.40;99.90
678;DHT22;321;48.814;9.132;2022-10-13T05:11:23;13.40;99.90
678;DHT22;321;48.814;9.132;2022-10-13T05:13:50;13.30;99.90
678;DHT22;321;48.814;9.132;2022-10-13T05:16:17;13.30;99.90
678;DHT22;321;48.814;9.132;2022-10-13T05:18:43;13.30;99.90
678;DHT22;321;48.814;9.132;2022-10-13T05:21:12;13.40;99.90
678;DHT22;321;48.814;9.132;2022-10-13T05:23:38;13.30;99.90
678;DHT22;321;48.814;9.132;2022-10-13T05:26:06;13.30;99.90
678;DHT22;321;48.814;9.132;2022-10-13T05:28:32;13.30;99.90
678;DHT22;321;48.814;9.132;2022-10-13T05:31:08;13.40;99.90
678;DHT22;321;48.814;9.132;2022-10-13T05:33:33;13.40;99.90
678;DHT22;321;48.814;9.132;2022-10-13T05:36:06;13.40;99.90
678;DHT22;321;48.814;9.132;2022-10-13T05:38:32;13.40;99.90
678;DHT22;321;48.814;9.132;2022-10-13T05:41:16;13.50;99.90
678;DHT22;321;48.814;9.132;2022-10-13T05:43:41;13.50;99.90
678;DHT22;321;48.814;9.132;2022-10-13T05:46:08;13.50;99.90
678;DHT22;321;48.814;9.132;2022-10-13T05:48:34;13.60;99.90
678;DHT22;321;48.814;9.132;2022-10-13T05:51:02;13.60;99.90
678;DHT22;321;48.814;9.132;2022-10-13T05:53:32;13.60;99.90
678;DHT22;321;48.814;9.132;2022-10-13T05:56:05;13.50;99.90
678;DHT22;321;48.814;9.132;2022-10-13T05:58:34;13.40;99.90
678;DHT22;321;48.814;9.132;2022-10-13T06:01:07;13.40;99.90
678;DHT22;321;48.814;9.132;2022-10-13T06:03:36;13.30;99.90
678;DHT22;321;48.814;9.132;2022-10-13T06:06:02;13.30;99.90
678;DHT22;321;48.814;9.132;2022-10-13T06:08:28;13.20;99.90
678;DHT22;321;48.814;9.132;2022-10-13T06:10:54;13.30;99.90
678;DHT22;321;48.814;9.132;2022-10-13T06:13:19;13.50;99.90
678;DHT22;321;48.814;9.132;2022-10-13T06:15:45;13.70;99.90
678;DHT22;321;48.814;9.132;2022-10-13T06:18:11;13.80;99.90
678;DHT22;321;48.814;9.132;2022-10-13T06:20:36;13.80;99.90
678;DHT22;321;48.814;9.132;2022-10-13T06:23:03;13.80;99.90
678;DHT22;321;48.814;9.132;2022-10-13T06:25:29;13.80;99.90
678;DHT22;321;48.814;9.132;2022-10-13T06:27:56;14.00;99.90
678;DHT22;321;48.814;9.132;2022-10-13T06:30:22;14.10;99.90
678;DHT22;321;48.814;9.132;2022-10-13T06:32:47;14.20;99.90
678;DHT22;321;48.814;9.132;2022-10-13T06:35:13;14.30;99.90
678;DHT22;321;48.814;9.132;2022-10-13T06:37:38;14.30;99.90
678;DHT22;321;48.814;9.132;2022-10-13T06:40:05;14.30;99.90
678;DHT22;321;48.814;9.132;2022-10-13T06:42:31;14.30;99.90
678;DHT22;321;48.814;9.132;2022-10-13T06:44:58;14.40;99.90
678;DHT22;321;48.814;9.132;2022-10-13T06:47:24;14.40;99.90
678;DHT22;321;48.814;9.132;2022-10-13T06:49:49;14.50;99.90
678;DHT22;321;48.814;9.132;2022-10-13T06:52:15;14.50;99.90
678;DHT22;321;48.814;9.132;2022-10-13T06:54:40;14.50;99.90
678;DHT22;321;48.814;9.132;2022-10-13T06:57:06;14.50;99.90
678;DHT22;321;48.814;9.132;2022-10-13T06:59:32;14.70;99.90
678;DHT22;321;48.814;9.132;2022-10-13T07:01:57;14.80;99.90
678;DHT22;321;48.814;9.132;2022-10-13T07:04:23;14.80;99.90
678;DHT22;321;48.814;9.132;2022-10-13T07:06:50;14.70;99.90
678;DHT22;321;48.814;9.132;2022-10-13T07:09:16;14.80;99.90
678;DHT22;321;48.814;9.132;2022-10-13T07:11:45;14.90;99.90
678;DHT22;321;48.814;9.132;2022-10-13T07:14:12;14.90;99.90
678;DHT22;321;48.814;9.132;2022-10-13T07:16:38;15.10;99.90
678;DHT22;321;48.814;9.132;2022-10-13T07:19:04;15.10;99.90
678;DHT22;321;48.814;9.132;2022-10-13T07:21:30;15.10;99.90
678;DHT22;321;48.814;9.132;2022-10-13T07:23:55;14.70;99.90
678;DHT22;321;48.814;9.132;2022-10-13T07:26:21;14.80;99.90
678;DHT22;321;48.814;9.132;2022-10-13T07:28:47;15.00;99.90
678;DHT22;321;48.814;9.132;2022-10-13T07:31:17;14.90;99.90
678;DHT22;321;48.814;9.132;2022-10-13T07:33:45;15.00;99.90
678;DHT22;321;48.814;9.132;2022-10-13T07:36:12;15.20;99.90
678;DHT22;321;48.814;9.132;2022-10-13T07:38:38;15.50;99.90
678;DHT22;321;48.814;9.132;2022-10-13T07:41:06;15.60;99.90
678;DHT22;321;48.814;9.132;2022-10-13T07:43:32;15.40;99.90
678;DHT22;321;48.814;9.132;2022-10-13T07:45:59;15.50;99.90
678;DHT22;321;48.814;9.132;2022-10-13T07:48:26;15.40;99.90
678;DHT22;321;48.814;9.132;2022-10-13T07:50:52;15.60;99.90
678;DHT22;321;48.814;9.132;2022-10-13T07:53:17;15.90;99.90
678;DHT22;321;48.814;9.132;2022-10-13T07:55:43;16.20;99.90
678;DHT22;321;48.814;9.132;2022-10-13T07:58:08;16.40;99.90
678;DHT22;321;48.814;9.132;2022-10-13T08:00:34;16.70;99.90
678;DHT22;321;48.814;9.132;2022-10-13T08:03:00;16.80;99.90
678;DHT22;321;48.814;9.132;2022-10-13T08:05:25;17.00;99.90
678;DHT22;321;48.814;9.132;2022-10-13T08:07:51;17.00;99.90
678;DHT22;321;48.814;9.132;2022-10-13T08:10:16;17.20;99.90
678;DHT22;321;48.814;9.132;2022-10-13T08:12:43;17.20;99.90
678;DHT22;321;48.814;9.132;2022-10-13T08:15:09;17.30;99.90
678;DHT22;321;48.814;9.132;2022-10-13T08:17:35;17.30;99.90
678;DHT22;321;48.814;9.132;2022-10-13T08:20:01;17.50;99.90
678;DHT22;321;48.814;9.132;2022-10-13T08:22:27;17.20;99.90
678;DHT22;321;48.814;9.132;2022-10-13T08:24:52;16.70;99.90
678;DHT22;321;48.814;9.132;2022-10-13T08:27:23;16.80;99.90
678;DHT22;321;48.814;9.132;2022-10-13T08:29:49;16.70;99.90
678;DHT22;321;48.814;9.132;2022-10-13T08:32:15;16.50;99.90
678;DHT22;321;48.814;9.132;2022-10-13T08:34:41;16.50;99.90
678;DHT22;321;48.814;9.132;2022-10-13T08:37:12;16.30;99.90
678;DHT22;321;48.814;9.132;2022-10-13T08:39:38;16.60;99.90
678;DHT22;321;48.814;9.132;2022-10-13T08:42:15;16.80;99.90
678;DHT22;321;48.814;9.132;2022-10-13T08:44:48;17.00;99.90
678;DHT22;321;48.814;9.132;2022-10-13T08:50:03;17.70;99.90
678;DHT22;321;48.814;9.132;2022-10-13T08:52:47;17.70;99.90
678;DHT22;321;48.814;9.132;2022-10-13T08:57:52;17.60;99.90
678;DHT22;321;48.814;9.132;2022-10-13T09:00:17;17.80;99.90
678;DHT22;321;48.814;9.132;2022-10-13T09:02:44;18.30;99.90
678;DHT22;321;48.814;9.132;2022-10-13T09:05:26;18.60;99.90
678;DHT22;321;48.814;9.132;2022-10-13T09:07:58;17.60;99.90
678;DHT22;321;48.814;9.132;2022-10-13T09:10:24;17.80;99.90
678;DHT22;321;48.814;9.132;2022-10-13T09:12:49;17.70;99.90
678;DHT22;321;48.814;9.132;2022-10-13T09:15:15;18.10;99.90
678;DHT22;321;48.814;9.132;2022-10-13T09:17:42;18.30;99.90
678;DHT22;321;48.814;9.132;2022-10-13T09:20:21;18.40;99.90
678;DHT22;321;48.814;9.132;2022-10-13T09:25:38;18.80;99.90
678;DHT22;321;48.814;9.132;2022-10-13T09:28:10;18.80;99.90
678;DHT22;321;48.814;9.132;2022-10-13T09:30:43;18.70;99.90
678;DHT22;321;48.814;9.132;2022-10-13T09:35:43;19.50;99.90
678;DHT22;321;48.814;9.132;2022-10-13T09:38:14;19.60;99.90
678;DHT22;321;48.814;9.132;2022-10-13T09:40:41;19.50;99.90
678;DHT22;321;48.814;9.132;2022-10-13T09:43:40;19.50;99.90
678;DHT22;321;48.814;9.132;2022-10-13T09:46:30;19.60;99.90
678;DHT22;321;48.814;9.132;2022-10-13T09:51:40;19.30;99.90
678;DHT22;321;48.814;9.132;2022-10-13T09:54:27;19.20;99.90
678;DHT22;321;48.814;9.132;2022-10-13T09:57:04;19.20;99.90
678;DHT22;321;48.814;9.132;2022-10-13T09:59:36;19.30;99.90
678;DHT22;321;48.814;9.132;2022-10-13T10:04:43;19.80;99.90
678;DHT22;321;48.814;9.132;2022-10-13T10:07:17;19.80;99.90
678;DHT22;321;48.814;9.132;2022-10-13T10:09:48;19.80;99.90
678;DHT22;321;48.814;9.132;2022-10-13T10:12:18;20.10;99.90
678;DHT22;321;48.814;9.132;2022-10-13T10:14:45;20.30;99.90
678;DHT22;321;48.814;9.132;2022-10-13T10:17:46;20.40;99.90
678;DHT22;321;48.814;9.132;2022-10-13T10:26:00;19.50;99.90
678;DHT22;321;48.814;9.132;2022-10-13T10:32:19;18.80;99.90
678;DHT22;321;48.814;9.132;2022-10-13T10:40:34;18.40;99.90
678;DHT22;321;48.814;9.132;2022-10-13T10:43:25;18.70;99.90
678;DHT22;321;48.814;9.132;2022-10-13T10:45:57;18.60;99.90
678;DHT22;321;48.814;9.132;2022-10-13T10:48:30;18.70;99.90
678;DHT22;321;48.814;9.132;2022-10-13T10:50:57;18.10;99.90
678;DHT22;321;48.814;9.132;2022-10-13T10:56:07;18.00;99.90
678;DHT22;321;48.814;9.132;2022-10-13T11:01:24;18.20;99.90
678;DHT22;321;48.814;9.132;2022-10-13T11:04:24;18.10;99.90
678;DHT22;321;48.814;9.132;2022-10-13T11:06:54;18.30;99.90
678;DHT22;321;48.814;9.132;2022-10-13T11:17:32;19.00;99.90
678;DHT22;321;48.814;9.132;2022-10-13T11:19:58;18.90;99.90
678;DHT22;321;48.814;9.132;2022-10-13T11:22:29;18.60;99.90
678;DHT22;321;48.814;9.132;2022-10-13T11:25:00;18.90;99.90
678;DHT22;321;48.814;9.132;2022-10-13T11:30:01;19.60;99.90
678;DHT22;321;48.814;9.132;2022-10-13T11:43:11;19.70;99.90
678;DHT22;321;48.814;9.132;2022-10-13T11:45:49;19.50;99.90
678;DHT22;321;48.814;9.132;2022-10-13T11:53:40;19.50;99.90
678;DHT22;321;48.814;9.132;2022-10-13T11:56:22;19.70;99.90
678;DHT22;321;48.814;9.132;2022-10-13T11:58:56;19.90;99.90
678;DHT22;321;48.814;9.132;2022-10-13T12:01:21;20.00;99.90
678;DHT22;321;48.814;9.132;2022-10-13T12:03:47;20.20;99.90
678;DHT22;321;48.814;9.132;2022-10-13T12:06:30;20.20;99.90
678;DHT22;321;48.814;9.132;2022-10-13T12:09:00;20.50;99.90
678;DHT22;321;48.814;9.132;2022-10-13T12:11:32;20.80;99.90
678;DHT22;321;48.814;9.132;2022-10-13T12:14:00;20.90;99.90
678;DHT22;321;48.814;9.132;2022-10-13T12:16:27;21.10;99.90
678;DHT22;321;48.814;9.132;2022-10-13T12:19:08;21.10;99.90
678;DHT22;321;48.814;9.132;2022-10-13T12:21:47;20.60;99.90
678;DHT22;321;48.814;9.132;2022-10-13T12:24:13;20.50;99.90
678;DHT22;321;48.814;9.132;2022-10-13T12:26:39;20.80;99.90
678;DHT22;321;48.814;9.132;2022-10-13T12:29:10;20.70;99.90
678;DHT22;321;48.814;9.132;2022-10-13T12:31:44;20.10;99.90
678;DHT22;321;48.814;9.132;2022-10-13T12:34:25;19.60;99.90
678;DHT22;321;48.814;9.132;2022-10-13T12:37:03;19.50;99.90
678;DHT22;321;48.814;9.132;2022-10-13T12:39:31;19.30;99.90
678;DHT22;321;48.814;9.132;2022-10-13T12:41:58;19.60;99.90
678;DHT22;321;48.814;9.132;2022-10-13T12:44:27;19.80;99.90
678;DHT22;321;48.814;9.132;2022-10-13T12:46:55;19.80;99.90
678;DHT22;321;48.814;9.132;2022-10-13T12:49:25;19.90;99.90
678;DHT22;321;48.814;9.132;2022-10-13T12:51:57;19.60;99.90
678;DHT22;321;48.814;9.132;2022-10-13T12:54:30;19.70;99.90
678;DHT22;321;48.814;9.132;2022-10-13T12:56:58;19.70;99.90
678;DHT22;321;48.814;9.132;2022-10-13T12:59:26;19.30;99.90
678;DHT22;321;48.814;9.132;2022-10-13T13:01:56;19.30;99.90
678;DHT22;321;48.814;9.132;2022-10-13T13:06:57;19.50;99.90
678;DHT22;321;48.814;9.132;2022-10-13T13:09:25;19.70;99.90
678;DHT22;321;48.814;9.132;2022-10-13T13:14:41;20.00;99.90
678;DHT22;321;48.814;9.132;2022-10-13T13:17:22;20.10;99.90
678;DHT22;321;48.814;9.132;2022-10-13T13:19:49;20.20;99.90
678;DHT22;321;48.814;9.132;2022-10-13T13:22:16;20.20;99.90
678;DHT22;321;48.814;9.132;2022-10-13T13:24:42;20.30;99.90
678;DHT22;321;48.814;9.132;2022-10-13T13:27:27;20.50;99.90
678;DHT22;321;48.814;9.132;2022-10-13T13:29:58;20.60;99.90
678;DHT22;321;48.814;9.132;2022-10-13T13:32:26;20.60;99.90
678;DHT22;321;48.814;9.132;2022-10-13T13:34:53;20.40;99.90
678;DHT22;321;48.814;9.132;2022-10-13T13:37:31;20.50;99.90
678;DHT22;321;48.814;9.132;2022-10-13T13:39:58;20.50;99.90
678;DHT22;321;48.814;9.132;2022-10-13T13:42:26;20.70;99.90
678;DHT22;321;48.814;9.132;2022-10-13T13:44:52;20.70;99.90
678;DHT22;321;48.814;9.132;2022-10-13T13:47:23;20.80;99.90
678;DHT22;321;48.814;9.132;2022-10-13T13:49:50;20.80;99.90
678;DHT22;321;48.814;9.132;2022-10-13T13:52:16;20.80;99.90
678;DHT22;321;48.814;9.132;2022-10-13T13:54:42;20.80;99.90
678;DHT22;321;48.814;9.132;2022-10-13T13:57:10;20.80;99.90
678;DHT22;321;48.814;9.132;2022-10-13T13:59:35;20.70;99.90
678;DHT22;321;48.814;9.132;2022-10-13T14:02:01;20.50;99.90
678;DHT22;321;48.814;9.132;2022-10-13T14:04:27;20.40;99.90
678;DHT22;321;48.814;9.132;2022-10-13T14:09:20;20.50;99.90
678;DHT22;321;48.814;9.132;2022-10-13T14:11:46;20.50;99.90
678;DHT22;321;48.814;9.132;2022-10-13T14:14:12;20.30;99.90
678;DHT22;321;48.814;9.132;2022-10-13T14:19:06;20.20;99.90
678;DHT22;321;48.814;9.132;2022-10-13T14:21:31;20.20;99.90
678;DHT22;321;48.814;9.132;2022-10-13T14:23:57;20.20;99.90
678;DHT22;321;48.814;9.132;2022-10-13T14:26:22;20.20;99.90
678;DHT22;321;48.814;9.132;2022-10-13T14:28:48;20.10;99.90
678;DHT22;321;48.814;9.132;2022-10-13T14:31:14;20.00;99.90
678;DHT22;321;48.814;9.132;2022-10-13T14:33:39;20.00;99.90
678;DHT22;321;48.814;9.132;2022-10-13T14:36:06;19.80;99.90
678;DHT22;321;48.814;9.132;2022-10-13T14:38:32;19.60;99.90
678;DHT22;321;48.814;9.132;2022-10-13T14:40:59;19.60;99.90
678;DHT22;321;48.814;9.132;2022-10-13T14:43:25;19.40;99.90
678;DHT22;321;48.814;9.132;2022-10-13T14:45:51;19.40;99.90
678;DHT22;321;48.814;9.132;2022-10-13T14:48:17;19.10;99.90
678;DHT22;321;48.814;9.132;2022-10-13T14:50:43;19.30;99.90
678;DHT22;321;48.814;9.132;2022-10-13T14:53:08;18.90;99.90
678;DHT22;321;48.814;9.132;2022-10-13T14:55:35;18.60;99.90
678;DHT22;321;48.814;9.132;2022-10-13T14:58:01;18.40;99.90
678;DHT22;321;48.814;9.132;2022-10-13T15:00:27;18.30;99.90
678;DHT22;321;48.814;9.132;2022-10-13T15:02:52;18.40;99.90
678;DHT22;321;48.814;9.132;2022-10-13T15:05:18;18.20;99.90
678;DHT22;321;48.814;9.132;2022-10-13T15:07:43;18.20;99.90
678;DHT22;321;48.814;9.132;2022-10-13T15:10:09;18.30;99.90
678;DHT22;321;48.814;9.132;2022-10-13T15:12:34;18.30;99.90
678;DHT22;321;48.814;9.132;2022-10-13T15:15:00;18.20;99.90
678;DHT22;321;48.814;9.132;2022-10-13T15:17:26;18.20;99.90
678;DHT22;321;48.814;9.132;2022-10-13T15:19:52;18.20;99.90
678;DHT22;321;48.814;9.132;2022-10-13T15:22:17;18.30;99.90
678;DHT22;321;48.814;9.132;2022-10-13T15:24:43;18.30;99.90
678;DHT22;321;48.814;9.132;2022-10-13T15:27:09;18.30;99.90
678;DHT22;321;48.814;9.132;2022-10-13T15:29:35;18.40;99.90
678;DHT22;321;48.814;9.132;2022-10-13T15:32:09;18.30;99.90
678;DHT22;321;48.814;9.132;2022-10-13T15:34:37;18.30;99.90
678;DHT22;321;48.814;9.132;2022-10-13T15:37:04;18.50;99.90
678;DHT22;321;48.814;9.132;2022-10-13T15:39:29;18.50;99.90
678;DHT22;321;48.814;9.132;2022-10-13T15:41:55;18.20;99.90
678;DHT22;321;48.814;9.132;2022-10-13T15:44:23;18.10;99.90
678;DHT22;321;48.814;9.132;2022-10-13T15:46:50;18.10;99.90
678;DHT22;321;48.814;9.132;2022-10-13T15:49:15;18.00;99.90
678;DHT22;321;48.814;9.132;2022-10-13T15:51:41;17.90;99.90
678;DHT22;321;48.814;9.132;2022-10-13T15:54:06;17.90;99.90
678;DHT22;321;48.814;9.132;2022-10-13T15:56:32;17.90;99.90
678;DHT22;321;48.814;9.132;2022-10-13T15:58:58;17.90;99.90
678;DHT22;321;48.814;9.132;2022-10-13T16:01:23;17.90;99.90
678;DHT22;321;48.814;9.132;2022-10-13T16:03:52;17.90;99.90
678;DHT22;321;48.814;9.132;2022-10-13T16:06:18;17.90;99.90
678;DHT22;321;48.814;9.132;2022-10-13T16:08:46;17.80;99.90
678;DHT22;321;48.814;9.132;2022-10-13T16:11:16;17.70;99.90
678;DHT22;321;48.814;9.132;2022-10-13T16:13:49;17.60;99.90
678;DHT22;321;48.814;9.132;2022-10-13T16:16:15;17.60;99.90
678;DHT22;321;48.814;9.132;2022-10-13T16:18:41;17.50;99.90
678;DHT22;321;48.814;9.132;2022-10-13T16:23:33;17.40;99.90
678;DHT22;321;48.814;9.132;2022-10-13T16:26:00;17.40;99.90
678;DHT22;321;48.814;9.132;2022-10-13T16:28:26;17.40;99.90
678;DHT22;321;48.814;9.132;2022-10-13T16:30:52;17.30;99.90
678;DHT22;321;48.814;9.132;2022-10-13T16:33:17;17.30;99.90
678;DHT22;321;48.814;9.132;2022-10-13T16:35:43;17.40;99.90
678;DHT22;321;48.814;9.132;2022-10-13T16:38:08;17.30;99.90
678;DHT22;321;48.814;9.132;2022-10-13T16:40:37;17.30;99.90
678;DHT22;321;48.814;9.132;2022-10-13T16:43:03;17.20;99.90
678;DHT22;321;48.814;9.132;2022-10-13T16:45:29;17.20;99.90
678;DHT22;321;48.814;9.132;2022-10-13T16:47:55;17.20;99.90
678;DHT22;321;48.814;9.132;2022-10-13T16:50:20;17.30;99.90
678;DHT22;321;48.814;9.132;2022-10-13T16:52:46;18.10;99.90
678;DHT22;321;48.814;9.132;2022-10-13T16:55:12;17.20;99.90
678;DHT22;321;48.814;9.132;2022-10-13T16:57:39;17.10;99.90
678;DHT22;321;48.814;9.132;2022-10-13T17:00:05;17.90;99.90
678;DHT22;321;48.814;9.132;2022-10-13T17:02:31;16.90;99.90
678;DHT22;321;48.814;9.132;2022-10-13T17:04:56;16.90;99.90
678;DHT22;321;48.814;9.132;2022-10-13T17:07:22;16.80;99.90
678;DHT22;321;48.814;9.132;2022-10-13T17:09:48;16.90;99.90
678;DHT22;321;48.814;9.132;2022-10-13T17:12:14;16.80;99.90
678;DHT22;321;48.814;9.132;2022-10-13T17:14:40;16.70;99.90
678;DHT22;321;48.814;9.132;2022-10-13T17:17:05;16.70;99.90
678;DHT22;321;48.814;9.132;2022-10-13T17:19:31;16.70;99.90
678;DHT22;321;48.814;9.132;2022-10-13T17:21:56;16.60;99.90
678;DHT22;321;48.814;9.132;2022-10-13T17:24:22;16.60;99.90
678;DHT22;321;48.814;9.132;2022-10-13T17:26:48;16.60;99.90
678;DHT22;321;48.814;9.132;2022-10-13T17:29:14;16.70;99.90
678;DHT22;321;48.814;9.132;2022-10-13T17:31:39;16.70;99.90
678;DHT22;321;48.814;9.132;2022-10-13T17:34:05;16.60;99.90
678;DHT22;321;48.814;9.132;2022-10-13T17:36:33;16.60;99.90
678;DHT22;321;48.814;9.132;2022-10-13T17:39:07;16.60;99.90
678;DHT22;321;48.814;9.132;2022-10-13T17:41:34;16.50;99.90
678;DHT22;321;48.814;9.132;2022-10-13T17:43:59;16.50;99.90
678;DHT22;321;48.814;9.132;2022-10-13T17:46:27;16.50;99.90
678;DHT22;321;48.814;9.132;2022-10-13T17:48:57;16.40;99.90
678;DHT22;321;48.814;9.132;2022-10-13T17:51:24;16.50;99.90
678;DHT22;321;48.814;9.132;2022-10-13T17:53:51;16.40;99.90
678;DHT22;321;48.814;9.132;2022-10-13T17:56:22;16.40;99.90
678;DHT22;321;48.814;9.132;2022-10-13T17:58:48;16.40;99.90
678;DHT22;321;48.814;9.132;2022-10-13T18:01:17;16.30;99.90
678;DHT22;321;48.814;9.132;2022-10-13T18:03:45;16.30;99.90
678;DHT22;321;48.814;9.132;2022-10-13T18:06:12;16.30;99.90
678;DHT22;321;48.814;9.132;2022-10-13T18:08:37;16.20;99.90
678;DHT22;321;48.814;9.132;2022-10-13T18:11:05;16.20;99.90
678;DHT22;321;48.814;9.132;2022-10-13T18:13:31;16.20;99.90
678;DHT22;321;48.814;9.132;2022-10-13T18:16:04;16.20;99.90
678;DHT22;321;48.814;9.132;2022-10-13T18:18:31;16.80;99.90
678;DHT22;321;48.814;9.132;2022-10-13T18:21:00;16.20;99.90
678;DHT22;321;48.814;9.132;2022-10-13T18:23:27;16.20;99.90